Time;durP1;ratioP1;P1;durP2;ratioP2;P2;SDS_P1;SDS_P2;PMS_P1;PMS_P2;Temp;Humidity;BMP_temperature;BMP_pressure;BME280_temperature;BME280_humidity;BME280_pressure;Samples;Min_cycle;Max_cycle;Signal;HPM_P1;HPM_P2
2023/05/19 00:00:18;;;;;;;;;32.40;31.80;;;;;13.03;64.98;99831.31;5069675;28;8823;-78
2023/05/19 00:03:08;;;;;;;;;29.60;29.40;;;;;13.44;63.34;99821.41;5061740;28;9016;-75
2023/05/19 00:05:44;;;;;;;;;31.20;30.00;;;;;13.36;63.56;99833.97;5049623;28;8868;-76
2023/05/19 00:08:16;;;;;;;;;30.00;24.20;;;;;13.43;63.52;99824.94;5050029;28;8878;-77
2023/05/19 00:10:46;;;;;;;;;31.40;27.40;;;;;13.61;62.72;99832.34;5069370;28;8858;-75
2023/05/19 00:13:15;;;;;;;;;20.60;19.20;;;;;13.27;63.51;99829.81;5052217;28;8854;-75
2023/05/19 00:15:44;;;;;;;;;25.80;24.00;;;;;13.61;62.57;99813.84;5050869;28;9604;-75
2023/05/19 00:18:15;;;;;;;;;30.40;27.00;;;;;13.55;62.75;99821.09;5051690;28;8924;-76
2023/05/19 00:20:44;;;;;;;;;21.20;19.80;;;;;13.30;63.24;99816.53;5071060;28;8865;-76
2023/05/19 00:23:14;;;;;;;;;21.00;20.20;;;;;12.98;64.48;99817.41;5069382;28;8882;-75
2023/05/19 00:25:43;;;;;;;;;20.20;18.80;;;;;13.28;63.55;99813.91;5070069;28;8827;-77
2023/05/19 00:28:12;;;;;;;;;19.00;18.20;;;;;13.23;63.63;99814.97;5070299;28;8998;-75
2023/05/19 00:30:42;;;;;;;;;25.80;22.60;;;;;12.97;64.68;99811.25;5050864;28;8923;-77
2023/05/19 00:33:11;;;;;;;;;17.40;16.60;;;;;13.36;63.17;99820.78;5051874;28;8881;-76
2023/05/19 00:35:40;;;;;;;;;19.60;17.20;;;;;13.42;63.19;99818.81;5068834;28;8900;-76
2023/05/19 00:38:09;;;;;;;;;19.60;17.80;;;;;13.50;62.70;99819.44;5010112;28;8921;-78
2023/05/19 00:40:40;;;;;;;;;17.00;16.20;;;;;13.45;62.89;99831.03;5026087;28;8859;-77
2023/05/19 00:43:08;;;;;;;;;17.80;17.80;;;;;13.66;62.26;99819.88;5008446;28;8958;-75
2023/05/19 00:45:37;;;;;;;;;19.00;18.20;;;;;13.47;62.69;99823.97;5009187;28;8866;-78
2023/05/19 00:48:06;;;;;;;;;18.60;17.40;;;;;13.21;63.33;99816.78;5009489;28;9076;-77
2023/05/19 00:50:35;;;;;;;;;20.20;18.80;;;;;13.49;62.77;99816.88;5025950;28;8851;-76
2023/05/19 00:53:04;;;;;;;;;18.40;17.40;;;;;13.66;62.37;99809.31;5025055;28;8884;-76
2023/05/19 00:55:35;;;;;;;;;20.40;18.80;;;;;13.74;61.86;99798.53;5005794;28;9068;-78
2023/05/19 00:58:06;;;;;;;;;19.80;18.80;;;;;13.78;61.87;99801.94;4992367;28;8902;-77
2023/05/19 01:00:36;;;;;;;;;19.00;19.00;;;;;13.94;61.15;99815.56;4977168;28;8907;-74
2023/05/19 01:03:09;;;;;;;;;16.80;16.20;;;;;14.01;60.97;99814.47;5022736;28;8933;-77
2023/05/19 01:05:43;;;;;;;;;20.80;18.40;;;;;13.54;62.38;99814.94;5006769;28;8910;-79
2023/05/19 01:08:12;;;;;;;;;17.80;17.60;;;;;13.63;62.07;99809.38;5007062;28;8905;-75
2023/05/19 01:10:41;;;;;;;;;21.80;20.00;;;;;13.62;62.29;99812.97;5013040;28;8905;-77
2023/05/19 01:13:12;;;;;;;;;19.00;17.80;;;;;13.82;61.92;99811.53;5025679;28;8836;-75
2023/05/19 01:16:07;;;;;;;;;18.20;17.40;;;;;14.18;61.18;99814.81;4992522;28;10112;-77
2023/05/19 01:18:45;;;;;;;;;19.40;19.20;;;;;14.18;61.06;99813.94;5010098;28;8856;-78
2023/05/19 01:21:47;;;;;;;;;18.80;17.00;;;;;14.43;60.25;99816.66;4992681;28;8840;-78
2023/05/19 01:24:45;;;;;;;;;20.60;19.20;;;;;14.38;60.13;99813.31;4986899;28;9043;-76
2023/05/19 01:27:42;;;;;;;;;21.20;19.60;;;;;14.55;59.66;99818.06;4992746;28;8853;-77
2023/05/19 01:30:28;;;;;;;;;20.80;15.60;;;;;14.28;60.20;99810.09;4996063;28;8873;-77
2023/05/19 01:33:01;;;;;;;;;18.80;17.40;;;;;13.83;61.11;99811.50;4965612;28;8864;-74
2023/05/19 01:35:31;;;;;;;;;20.00;18.80;;;;;13.85;60.96;99816.72;4970166;28;9019;-75
2023/05/19 01:38:02;;;;;;;;;20.40;19.40;;;;;13.46;62.34;99812.53;4970106;28;8865;-77
2023/05/19 01:40:32;;;;;;;;;18.40;16.80;;;;;13.51;62.13;99800.06;4954518;28;9599;-74
2023/05/19 01:43:02;;;;;;;;;18.60;18.60;;;;;13.79;61.29;99801.00;4986615;28;8899;-76
2023/05/19 01:45:34;;;;;;;;;17.00;15.80;;;;;13.56;61.87;99797.28;5018460;28;9712;-77
2023/05/19 01:48:05;;;;;;;;;20.00;20.00;;;;;13.72;61.56;99799.47;5031631;28;8904;-75
2023/05/19 01:50:40;;;;;;;;;21.20;18.00;;;;;13.93;60.79;99792.72;5016767;28;8838;-77
2023/05/19 01:53:09;;;;;;;;;20.80;19.40;;;;;13.43;62.22;99804.72;4995978;28;8842;-76
2023/05/19 01:55:44;;;;;;;;;19.20;16.00;;;;;13.76;61.64;99799.34;4979347;28;8882;-75
2023/05/19 01:58:20;;;;;;;;;16.00;15.00;;;;;13.77;61.42;99797.53;5001129;28;8862;-75
2023/05/19 02:00:58;;;;;;;;;19.20;17.20;;;;;13.95;61.09;99790.88;5010925;28;8854;-75
2023/05/19 02:03:44;;;;;;;;;20.40;19.20;;;;;13.79;61.26;99798.38;5053942;28;9625;-77
2023/05/19 02:06:27;;;;;;;;;17.20;16.00;;;;;13.45;62.64;99796.72;5041224;28;8854;-75
2023/05/19 02:09:00;;;;;;;;;20.80;20.00;;;;;13.66;61.90;99795.25;5067731;28;8862;-76
2023/05/19 02:11:36;;;;;;;;;19.80;19.20;;;;;13.59;62.16;99796.34;5050960;28;8957;-78
2023/05/19 02:14:13;;;;;;;;;16.00;14.60;;;;;13.58;62.06;99790.19;5037155;28;9594;-78
2023/05/19 02:16:47;;;;;;;;;23.40;17.40;;;;;13.61;62.14;99782.16;5067259;28;8886;-77
2023/05/19 02:19:24;;;;;;;;;19.60;18.80;;;;;13.69;62.00;99788.09;5075245;28;8894;-76
2023/05/19 02:21:55;;;;;;;;;25.40;21.60;;;;;13.46;62.57;99794.03;5073526;28;8842;-76
2023/05/19 02:24:24;;;;;;;;;20.60;19.80;;;;;13.56;62.19;99781.44;5057435;28;8846;-78
2023/05/19 02:26:54;;;;;;;;;19.00;17.60;;;;;13.37;62.46;99783.72;5058163;28;8911;-77
2023/05/19 02:29:23;;;;;;;;;20.60;19.80;;;;;13.42;62.33;99794.19;5072802;28;8885;-76
2023/05/19 02:31:53;;;;;;;;;20.60;19.00;;;;;13.80;61.50;99781.63;5056515;28;8854;-75
2023/05/19 02:34:22;;;;;;;;;21.40;19.80;;;;;13.92;60.92;99775.97;5076578;28;8865;-76
2023/05/19 02:36:51;;;;;;;;;17.80;17.20;;;;;13.82;61.19;99772.75;5058502;28;8877;-77
2023/05/19 02:39:19;;;;;;;;;20.00;19.60;;;;;13.77;61.23;99761.44;5050256;28;8880;-75
2023/05/19 02:41:48;;;;;;;;;22.40;20.80;;;;;13.85;60.97;99764.75;5076025;28;8896;-77
2023/05/19 02:44:17;;;;;;;;;19.20;18.20;;;;;13.38;62.46;99774.06;5057081;28;8858;-76
2023/05/19 02:46:46;;;;;;;;;20.40;18.20;;;;;13.26;63.38;99769.97;5022874;28;8858;-76
2023/05/19 02:49:17;;;;;;;;;27.40;23.40;;;;;13.14;63.62;99770.34;5074614;28;8858;-77
2023/05/19 02:51:45;;;;;;;;;22.40;19.80;;;;;13.07;64.14;99767.00;5072662;28;8854;-77
2023/05/19 02:54:14;;;;;;;;;22.40;17.40;;;;;12.08;68.37;99761.56;5073243;28;8831;-75
2023/05/19 02:56:43;;;;;;;;;19.80;19.80;;;;;12.48;66.95;99760.59;5073226;28;8862;-76
2023/05/19 02:59:12;;;;;;;;;22.80;19.60;;;;;12.43;67.44;99769.50;5050266;28;8845;-75
2023/05/19 03:01:41;;;;;;;;;22.20;19.60;;;;;12.44;66.98;99774.75;5065338;28;8873;-76
2023/05/19 03:04:10;;;;;;;;;23.00;19.60;;;;;12.04;69.01;99785.41;5071269;28;8947;-77
2023/05/19 03:06:41;;;;;;;;;19.00;17.60;;;;;11.72;70.31;99785.19;5071166;28;8916;-75
2023/05/19 03:09:10;;;;;;;;;25.00;21.80;;;;;11.60;71.33;99798.63;5053244;28;8881;-75
2023/05/19 03:11:39;;;;;;;;;65.50;52.25;;;;;12.29;68.88;99798.88;5070656;28;8866;-76
2023/05/19 03:14:08;;;;;;;;;35.00;33.20;;;;;12.52;67.41;99799.19;5067075;28;8857;-76
2023/05/19 03:16:39;;;;;;;;;28.40;26.00;;;;;12.94;65.93;99798.16;5055642;28;8868;-78
2023/05/19 03:19:09;;;;;;;;;22.60;20.80;;;;;13.39;64.67;99796.91;5066621;28;9123;-77
2023/05/19 03:21:40;;;;;;;;;29.20;26.20;;;;;12.45;67.35;99807.28;5049697;28;9019;-76
2023/05/19 03:24:09;;;;;;;;;29.80;25.40;;;;;12.38;67.67;99803.06;5069710;28;8865;-79
2023/05/19 03:26:38;;;;;;;;;31.00;27.00;;;;;11.71;71.04;99809.81;5053751;28;8988;-77
2023/05/19 03:29:07;;;;;;;;;28.40;26.40;;;;;11.41;72.61;99800.78;5069712;28;8915;-76
2023/05/19 03:31:37;;;;;;;;;25.60;24.60;;;;;11.70;72.01;99799.28;5068732;28;8881;-77
2023/05/19 03:34:06;;;;;;;;;25.80;21.40;;;;;12.08;70.19;99803.72;5020356;28;8850;-76
2023/05/19 03:36:38;;;;;;;;;27.80;25.40;;;;;12.33;69.40;99804.03;5052633;28;8858;-74
2023/05/19 03:39:14;;;;;;;;;17.40;15.00;;;;;12.56;68.14;99797.34;5070795;28;8830;-76
2023/05/19 03:41:43;;;;;;;;;27.40;25.80;;;;;12.56;68.29;99807.00;5053212;28;8886;-78
2023/05/19 03:44:12;;;;;;;;;28.20;28.00;;;;;12.72;67.50;99803.94;5068811;28;8866;-76
2023/05/19 03:46:41;;;;;;;;;33.60;31.00;;;;;13.12;66.23;99807.31;5068077;28;8866;-78
2023/05/19 03:49:29;;;;;;;;;35.20;33.00;;;;;13.63;64.37;99811.19;5053266;28;8835;-78
2023/05/19 03:52:29;;;;;;;;;34.20;30.80;;;;;13.57;63.85;99816.66;5028088;28;9058;-76
2023/05/19 03:55:15;;;;;;;;;31.60;31.00;;;;;12.77;67.15;99810.84;5015849;28;8867;-74
2023/05/19 03:57:44;;;;;;;;;35.20;30.40;;;;;13.38;64.98;99809.25;4994839;28;8947;-76
2023/05/19 04:00:14;;;;;;;;;39.60;32.60;;;;;13.35;64.49;99809.31;4995257;28;8865;-77
2023/05/19 04:02:42;;;;;;;;;34.20;32.20;;;;;13.12;65.96;99812.59;5009919;28;8971;-77
2023/05/19 04:05:11;;;;;;;;;24.20;23.80;;;;;13.35;65.08;99809.31;4994754;28;8856;-78
2023/05/19 04:07:40;;;;;;;;;26.40;23.20;;;;;13.46;64.80;99807.25;5011181;28;8872;-78
2023/05/19 04:10:10;;;;;;;;;29.40;25.60;;;;;13.11;65.72;99817.03;5011155;28;8914;-75
2023/05/19 04:12:40;;;;;;;;;59.50;48.00;;;;;13.43;64.64;99807.34;4978657;28;8967;-77
2023/05/19 04:15:11;;;;;;;;;35.00;31.40;;;;;13.20;65.09;99805.34;5009708;28;9637;-74
2023/05/19 04:17:41;;;;;;;;;17.80;16.80;;;;;13.41;64.64;99787.16;4993802;28;8860;-77
2023/05/19 04:20:11;;;;;;;;;26.00;23.60;;;;;13.57;64.16;99800.81;4993589;28;8829;-76
2023/05/19 04:22:40;;;;;;;;;28.80;28.60;;;;;13.73;63.55;99802.06;4978407;28;8954;-77
2023/05/19 04:25:10;;;;;;;;;38.20;29.40;;;;;13.35;64.62;99808.47;5026109;28;8958;-77
2023/05/19 04:27:41;;;;;;;;;26.00;25.60;;;;;13.57;64.13;99817.50;5031685;28;8853;-80
2023/05/19 04:30:15;;;;;;;;;45.00;30.60;;;;;12.21;68.99;99833.31;5053070;28;10091;-76
2023/05/19 04:32:46;;;;;;;;;42.00;31.60;;;;;12.61;68.28;99828.84;4983497;28;8861;-78
2023/05/19 04:35:16;;;;;;;;;35.80;32.00;;;;;12.39;69.55;99836.41;5043056;28;8855;-76
2023/05/19 04:37:45;;;;;;;;;33.20;30.60;;;;;13.03;67.63;99841.88;5067765;28;8846;-76
2023/05/19 04:40:16;;;;;;;;;38.60;30.40;;;;;12.81;67.66;99838.91;5066906;28;8865;-77
2023/05/19 04:42:48;;;;;;;;;29.80;27.80;;;;;13.03;67.05;99849.78;5068221;28;8900;-76
2023/05/19 04:45:18;;;;;;;;;36.60;28.40;;;;;12.04;70.66;99857.41;5068557;28;8905;-77
2023/05/19 04:47:51;;;;;;;;;30.00;25.40;;;;;12.46;69.64;99853.81;5051099;28;8881;-77
2023/05/19 04:50:20;;;;;;;;;30.60;25.80;;;;;12.38;69.21;99842.59;5051020;28;8865;-76
2023/05/19 04:52:49;;;;;;;;;23.60;22.40;;;;;12.29;70.43;99844.53;5067731;28;8862;-80
2023/05/19 04:55:18;;;;;;;;;23.00;20.60;;;;;12.28;70.15;99837.53;5051084;28;8858;-77
2023/05/19 04:57:50;;;;;;;;;27.40;24.80;;;;;12.29;70.12;99841.03;5069716;28;8870;-79
2023/05/19 05:00:21;;;;;;;;;28.20;23.80;;;;;12.43;69.83;99843.34;5074687;28;8877;-78
2023/05/19 05:02:58;;;;;;;;;16.20;15.00;;;;;12.43;69.51;99849.50;5049775;28;9003;-75
2023/05/19 05:05:30;;;;;;;;;23.40;22.60;;;;;12.50;69.30;99855.47;5017821;28;8858;-77
2023/05/19 05:07:59;;;;;;;;;21.80;21.80;;;;;12.76;68.75;99851.34;5043212;28;8853;-77
2023/05/19 05:10:32;;;;;;;;;15.60;13.60;;;;;13.08;67.65;99856.69;5030673;28;8857;-76
2023/05/19 05:13:04;;;;;;;;;18.00;17.20;;;;;13.06;67.27;99849.72;5046255;28;9603;-77
2023/05/19 05:15:34;;;;;;;;;18.40;18.00;;;;;12.49;68.94;99849.34;5036593;28;8858;-77
2023/05/19 05:18:04;;;;;;;;;18.00;17.40;;;;;12.05;71.47;99850.34;5066322;28;8862;-78
2023/05/19 05:20:34;;;;;;;;;19.20;17.20;;;;;12.47;69.77;99842.38;5082938;28;8850;-78
2023/05/19 05:23:03;;;;;;;;;20.20;19.40;;;;;12.59;69.23;99859.69;4999439;28;8889;-76
2023/05/19 05:25:35;;;;;;;;;18.20;17.80;;;;;12.78;68.45;99860.94;5032609;28;9733;-76
2023/05/19 05:28:05;;;;;;;;;18.20;17.80;;;;;13.21;67.54;99859.88;5066154;28;8882;-75
2023/05/19 05:30:37;;;;;;;;;19.80;17.80;;;;;13.09;67.61;99860.19;5047563;28;8848;-75
2023/05/19 05:33:08;;;;;;;;;18.60;17.20;;;;;13.01;67.71;99859.53;5060336;28;8941;-76
2023/05/19 05:35:39;;;;;;;;;20.40;17.60;;;;;12.70;68.70;99868.19;5048882;28;8844;-76
2023/05/19 05:38:10;;;;;;;;;21.00;19.60;;;;;13.15;67.48;99861.78;5049984;28;8840;-77
2023/05/19 05:40:41;;;;;;;;;20.20;19.60;;;;;13.21;67.15;99866.94;5061074;28;8850;-77
2023/05/19 05:43:12;;;;;;;;;18.80;17.00;;;;;13.54;66.05;99870.41;5030064;28;8846;-75
2023/05/19 05:45:47;;;;;;;;;19.40;18.40;;;;;13.51;66.00;99862.59;5029276;28;9028;-78
2023/05/19 05:48:16;;;;;;;;;20.40;17.80;;;;;13.48;65.78;99878.50;5047114;28;8852;-78
2023/05/19 05:50:46;;;;;;;;;17.60;17.00;;;;;13.93;64.76;99869.34;4995733;28;8881;-76
2023/05/19 05:53:20;;;;;;;;;19.80;17.00;;;;;14.19;63.96;99869.44;4987201;28;8878;-77
2023/05/19 05:55:53;;;;;;;;;16.60;15.40;;;;;14.46;63.43;99867.69;5044139;28;8929;-77
2023/05/19 05:58:28;;;;;;;;;20.40;19.20;;;;;13.63;65.69;99862.22;5015981;28;8864;-78
2023/05/19 06:00:58;;;;;;;;;22.20;20.20;;;;;13.94;64.63;99861.38;5031258;28;8820;-76
2023/05/19 06:03:27;;;;;;;;;23.00;19.40;;;;;14.33;63.90;99874.28;5059074;28;8864;-76
2023/05/19 06:06:02;;;;;;;;;22.40;21.20;;;;;14.68;62.72;99867.88;5028161;28;8885;-76
2023/05/19 06:08:30;;;;;;;;;20.20;18.80;;;;;14.93;62.20;99871.53;5048448;28;8956;-77
2023/05/19 06:11:00;;;;;;;;;19.00;18.40;;;;;14.97;61.50;99876.63;5066004;28;8831;-76
2023/05/19 06:13:31;;;;;;;;;13.00;11.80;;;;;15.07;61.32;99890.44;5049642;28;8877;-78
2023/05/19 06:16:01;;;;;;;;;18.40;17.60;;;;;15.21;60.89;99890.81;5049098;28;8882;-77
2023/05/19 06:18:33;;;;;;;;;17.00;16.40;;;;;14.47;62.33;99895.03;5065477;28;8874;-77
2023/05/19 06:21:03;;;;;;;;;17.80;17.00;;;;;14.71;62.10;99885.41;5053193;28;8886;-77
2023/05/19 06:23:31;;;;;;;;;18.00;17.00;;;;;14.99;60.94;99889.84;5048906;28;8959;-77
2023/05/19 06:26:01;;;;;;;;;21.20;19.20;;;;;15.24;60.51;99892.50;5048433;28;9154;-79
2023/05/19 06:28:32;;;;;;;;;18.80;14.60;;;;;15.52;59.52;99892.38;5065568;28;8874;-78
2023/05/19 06:31:01;;;;;;;;;14.00;13.00;;;;;15.38;59.42;99897.34;5028001;28;8877;-78
2023/05/19 06:33:50;;;;;;;;;17.20;16.80;;;;;15.30;59.26;99888.78;5036046;28;8964;-78
2023/05/19 06:36:21;;;;;;;;;20.20;19.60;;;;;15.23;59.90;99893.44;5062124;28;8885;-78
2023/05/19 06:38:51;;;;;;;;;15.00;13.80;;;;;14.82;60.69;99893.91;5049949;28;8861;-76
2023/05/19 06:41:21;;;;;;;;;15.20;12.80;;;;;14.78;60.82;99880.84;5049512;28;8869;-78
2023/05/19 06:43:53;;;;;;;;;12.00;10.80;;;;;14.77;60.46;99892.31;5053355;28;8842;-77
2023/05/19 06:46:23;;;;;;;;;11.80;11.80;;;;;14.75;60.93;99904.72;5087025;28;8850;-80
2023/05/19 06:48:51;;;;;;;;;11.40;11.00;;;;;15.05;60.40;99906.34;5070317;28;8882;-78
2023/05/19 06:51:23;;;;;;;;;18.40;16.80;;;;;15.01;59.86;99906.53;5052077;28;8943;-77
2023/05/19 06:53:56;;;;;;;;;18.60;17.80;;;;;14.85;60.92;99907.03;5068874;28;9746;-79
2023/05/19 06:56:25;;;;;;;;;15.00;13.40;;;;;14.59;61.97;99915.78;5052665;28;8854;-77
2023/05/19 06:58:55;;;;;;;;;15.20;15.20;;;;;14.39;62.40;99916.41;5069416;28;8853;-79
2023/05/19 07:01:31;;;;;;;;;13.20;13.20;;;;;14.88;61.14;99919.28;5069106;28;8927;-76
2023/05/19 07:04:00;;;;;;;;;14.20;14.20;;;;;14.85;61.10;99914.97;5069631;28;8873;-77
2023/05/19 07:06:30;;;;;;;;;11.60;11.40;;;;;14.90;60.87;99917.47;5019031;28;8938;-78
2023/05/19 07:08:59;;;;;;;;;11.80;11.60;;;;;15.06;60.46;99918.69;5070341;28;8834;-78
2023/05/19 07:11:29;;;;;;;;;15.00;14.60;;;;;15.45;59.62;99906.75;5069038;28;8893;-78
2023/05/19 07:14:00;;;;;;;;;12.60;11.80;;;;;15.08;60.22;99905.41;5038262;28;8888;-78
2023/05/19 07:16:32;;;;;;;;;9.80;8.60;;;;;15.28;59.93;99904.72;5071477;28;9031;-78
2023/05/19 07:19:01;;;;;;;;;10.00;10.00;;;;;15.49;59.06;99892.53;5064691;28;8895;-78
2023/05/19 07:21:30;;;;;;;;;11.40;11.00;;;;;15.60;58.96;99889.50;5067754;28;9064;-80
2023/05/19 07:23:59;;;;;;;;;13.20;12.60;;;;;15.11;60.21;99888.53;5051053;28;8949;-77
2023/05/19 07:26:29;;;;;;;;;14.60;12.80;;;;;15.18;59.97;99885.63;5068460;28;8856;-79
2023/05/19 07:28:58;;;;;;;;;14.80;12.00;;;;;15.43;59.45;99890.94;5036643;28;9640;-80
2023/05/19 07:31:28;;;;;;;;;14.60;13.00;;;;;15.09;60.67;99904.47;5053482;28;8948;-75
2023/05/19 07:33:57;;;;;;;;;14.00;14.00;;;;;15.10;60.54;99906.22;5067892;28;8902;-79
2023/05/19 07:36:26;;;;;;;;;16.60;16.60;;;;;14.63;62.31;99916.56;5077661;28;8922;-77
2023/05/19 07:38:55;;;;;;;;;13.40;13.40;;;;;14.33;63.27;99913.09;5053528;28;8984;-79
2023/05/19 07:41:25;;;;;;;;;20.20;19.00;;;;;14.42;63.42;99920.75;5056000;28;8868;-76
2023/05/19 07:43:53;;;;;;;;;24.00;21.60;;;;;14.58;63.20;99921.13;5049761;28;8892;-77
2023/05/19 07:46:22;;;;;;;;;17.40;16.80;;;;;15.06;61.76;99907.25;5047728;28;9696;-79
2023/05/19 07:48:52;;;;;;;;;21.00;19.20;;;;;15.17;61.18;99910.41;5049341;28;9808;-79
2023/05/19 07:51:21;;;;;;;;;21.80;20.00;;;;;14.91;61.51;99902.47;5065358;28;8862;-76
2023/05/19 07:53:50;;;;;;;;;19.40;19.20;;;;;15.29;60.63;99895.84;5069468;28;8838;-80
2023/05/19 07:56:20;;;;;;;;;25.20;20.80;;;;;15.65;59.74;99908.75;5068211;28;8846;-78
2023/05/19 07:58:48;;;;;;;;;24.80;24.80;;;;;15.86;59.20;99908.88;5086910;28;8872;-77
2023/05/19 08:01:17;;;;;;;;;16.40;16.40;;;;;15.99;58.38;99913.66;5086919;28;8837;-77
2023/05/19 08:03:46;;;;;;;;;20.80;19.60;;;;;15.69;59.33;99918.31;5053268;28;9944;-78
2023/05/19 08:06:16;;;;;;;;;35.40;31.60;;;;;15.09;61.57;99916.84;5053521;28;8838;-78
2023/05/19 08:08:46;;;;;;;;;19.20;17.00;;;;;15.69;59.47;99920.09;5086847;28;8869;-76
2023/05/19 08:11:15;;;;;;;;;26.00;22.80;;;;;15.71;59.05;99923.56;5026513;28;8849;-78
2023/05/19 08:13:46;;;;;;;;;19.80;18.80;;;;;16.03;58.35;99917.06;5009638;28;9011;-78
2023/05/19 08:16:15;;;;;;;;;18.80;18.80;;;;;16.31;57.61;99918.69;4993889;28;8837;-79
2023/05/19 08:18:44;;;;;;;;;17.80;15.60;;;;;16.55;56.97;99922.16;5009622;28;8957;-77
2023/05/19 08:21:13;;;;;;;;;17.60;17.40;;;;;16.72;56.64;99916.19;5010234;28;8856;-78
2023/05/19 08:23:43;;;;;;;;;18.60;18.60;;;;;16.86;56.36;99910.31;5026122;28;8849;-79
2023/05/19 08:26:12;;;;;;;;;15.40;14.20;;;;;17.11;55.20;99912.81;5009936;28;8894;-77
2023/05/19 08:28:41;;;;;;;;;20.80;20.80;;;;;16.83;55.69;99902.47;5026894;28;8886;-77
2023/05/19 08:31:10;;;;;;;;;17.40;16.40;;;;;16.66;56.44;99906.66;5017156;28;8873;-77
2023/05/19 08:33:38;;;;;;;;;15.40;15.40;;;;;17.01;55.92;99915.00;4996502;28;8988;-77
2023/05/19 08:36:08;;;;;;;;;17.00;16.00;;;;;17.39;55.13;99909.88;5010428;28;8889;-76
2023/05/19 08:38:36;;;;;;;;;19.80;19.00;;;;;17.02;54.59;99902.56;5018939;28;8879;-78
2023/05/19 08:41:07;;;;;;;;;22.00;22.00;;;;;17.18;54.75;99893.03;4993726;28;8847;-77
2023/05/19 08:43:35;;;;;;;;;19.20;18.40;;;;;17.49;54.26;99897.03;5009809;28;8868;-80
2023/05/19 08:46:06;;;;;;;;;15.80;14.80;;;;;16.40;56.46;99897.94;4993544;28;8843;-76
2023/05/19 08:48:39;;;;;;;;;20.80;19.60;;;;;15.32;60.62;99901.06;5012419;28;8853;-78
2023/05/19 08:51:20;;;;;;;;;21.60;21.00;;;;;16.12;59.12;99889.34;5067061;28;8854;-77
2023/05/19 08:53:54;;;;;;;;;17.80;17.80;;;;;16.37;57.58;99894.56;5067064;28;9674;-78
2023/05/19 08:56:25;;;;;;;;;23.40;21.80;;;;;16.32;57.72;99892.09;5065770;28;8859;-79
2023/05/19 08:58:58;;;;;;;;;20.60;20.60;;;;;16.31;57.66;99890.34;5050140;28;8858;-77
2023/05/19 09:01:29;;;;;;;;;20.60;20.20;;;;;15.93;58.75;99894.47;5066527;28;8861;-77
2023/05/19 09:03:58;;;;;;;;;21.20;19.60;;;;;16.57;57.34;99893.81;5066791;28;9754;-77
2023/05/19 09:06:31;;;;;;;;;27.20;26.60;;;;;16.79;56.57;99899.06;5066659;28;8858;-78
2023/05/19 09:08:59;;;;;;;;;20.60;20.00;;;;;15.27;60.82;99902.13;5066668;28;8880;-77
2023/05/19 09:11:30;;;;;;;;;20.00;17.20;;;;;15.15;61.47;99899.00;5066965;28;8971;-80
2023/05/19 09:13:58;;;;;;;;;18.60;18.20;;;;;14.38;64.19;99904.09;5066792;28;8866;-78
2023/05/19 09:16:28;;;;;;;;;19.80;19.40;;;;;14.14;65.29;99895.13;5066714;28;8870;-77
2023/05/19 09:18:59;;;;;;;;;26.60;23.20;;;;;13.80;66.37;99889.94;5050376;28;8904;-77
2023/05/19 09:21:32;;;;;;;;;20.40;20.40;;;;;14.39;65.14;99892.59;5050485;28;8842;-79
2023/05/19 09:24:05;;;;;;;;;21.40;21.40;;;;;14.91;63.77;99876.00;5067796;28;8862;-79
2023/05/19 09:26:40;;;;;;;;;28.60;24.20;;;;;14.80;63.86;99876.34;5066483;28;8977;-80
2023/05/19 09:29:13;;;;;;;;;23.80;23.80;;;;;14.21;64.95;99879.97;5049719;28;8843;-79
2023/05/19 09:31:49;;;;;;;;;23.20;21.80;;;;;14.74;64.72;99874.78;5067846;28;8928;-77
2023/05/19 09:34:18;;;;;;;;;23.80;22.40;;;;;15.45;62.06;99878.50;5066298;28;8962;-76
2023/05/19 09:36:49;;;;;;;;;25.20;24.40;;;;;15.95;60.44;99884.69;5067407;28;8880;-79
2023/05/19 09:39:19;;;;;;;;;21.00;20.60;;;;;15.41;61.03;99897.19;5084969;28;8943;-78
2023/05/19 09:41:52;;;;;;;;;24.00;22.00;;;;;;;;5068489;28;8915;-76
2023/05/19 09:44:28;;;;;;;;;24.40;23.80;;;;;15.96;59.63;99881.97;5051745;28;8858;-82
2023/05/19 09:46:58;;;;;;;;;19.60;19.60;;;;;15.79;60.28;99876.44;5085346;28;8861;-77
2023/05/19 09:49:30;;;;;;;;;27.60;25.20;;;;;14.53;64.52;99881.59;5085320;28;8892;-78
2023/05/19 09:52:03;;;;;;;;;21.80;21.80;;;;;14.45;65.26;99894.19;5068159;28;8865;-78
2023/05/19 09:54:34;;;;;;;;;27.40;25.40;;;;;14.78;64.21;99880.84;5025461;28;8859;-76
2023/05/19 09:57:06;;;;;;;;;21.80;21.20;;;;;14.81;63.83;99884.25;5025198;28;8860;-77
2023/05/19 09:59:37;;;;;;;;;22.40;22.00;;;;;14.35;65.14;99882.16;5008660;28;8848;-78
2023/05/19 10:02:15;;;;;;;;;23.40;22.20;;;;;14.98;63.74;99885.44;5008755;28;8890;-78
2023/05/19 10:04:46;;;;;;;;;27.00;24.80;;;;;15.61;62.25;99875.34;5024913;28;9006;-79
2023/05/19 10:07:16;;;;;;;;;27.00;26.60;;;;;14.67;64.23;99881.13;5025329;28;8855;-77
2023/05/19 10:09:45;;;;;;;;;28.40;26.00;;;;;14.51;64.49;99883.44;5028637;28;9594;-77
2023/05/19 10:12:18;;;;;;;;;24.00;22.60;;;;;14.65;64.25;99881.19;5028767;28;8962;-78
2023/05/19 10:14:48;;;;;;;;;23.20;22.80;;;;;14.85;63.65;99871.78;4996791;28;8851;-77
2023/05/19 10:17:17;;;;;;;;;33.60;30.80;;;;;15.67;61.39;99877.75;5023631;28;8863;-76
2023/05/19 10:19:50;;;;;;;;;19.00;18.00;;;;;16.19;58.96;99862.53;4983581;28;8860;-76
2023/05/19 10:22:19;;;;;;;;;26.00;23.60;;;;;15.95;59.15;99868.78;5029667;28;8915;-75
2023/05/19 10:24:48;;;;;;;;;27.20;25.20;;;;;15.96;59.66;99870.50;5028468;28;8927;-76
2023/05/19 10:27:19;;;;;;;;;28.00;25.80;;;;;16.61;57.78;99871.50;5027768;28;8848;-78
2023/05/19 10:29:51;;;;;;;;;17.00;15.80;;;;;17.33;56.58;99870.28;5028486;28;8849;-76
2023/05/19 10:32:24;;;;;;;;;23.80;22.40;;;;;17.83;55.10;99868.94;5049674;28;8836;-77
2023/05/19 10:35:24;;;;;;;;;23.20;21.40;;;;;18.48;53.09;99866.78;5068115;28;8856;-76
2023/05/19 10:38:04;;;;;;;;;23.00;22.00;;;;;18.11;51.35;99865.88;4941298;28;8860;-77
2023/05/19 10:40:36;;;;;;;;;22.40;22.20;;;;;18.25;52.00;99875.88;4988970;28;8845;-78
2023/05/19 10:43:21;;;;;;;;;22.60;22.20;;;;;18.37;50.87;99874.44;4924842;28;8903;-75
2023/05/19 10:45:53;;;;;;;;;23.60;22.60;;;;;17.20;53.52;99884.06;4972166;28;9102;-77
2023/05/19 10:48:22;;;;;;;;;23.20;22.80;;;;;17.63;53.31;99878.69;4972585;28;9622;-78
2023/05/19 10:50:53;;;;;;;;;24.60;23.60;;;;;17.58;52.66;99881.53;4988304;28;8972;-78
2023/05/19 10:53:31;;;;;;;;;24.40;23.40;;;;;18.40;50.84;99868.94;4988629;28;8887;-78
2023/05/19 10:56:02;;;;;;;;;25.60;25.40;;;;;18.90;50.48;99863.81;4981589;28;8865;-76
2023/05/19 10:58:50;;;;;;;;;27.00;25.20;;;;;19.30;47.85;99866.25;4988285;28;8932;-78
2023/05/19 11:01:20;;;;;;;;;26.40;26.00;;;;;19.66;45.95;99868.78;4997700;28;8866;-76
2023/05/19 11:03:52;;;;;;;;;24.20;20.60;;;;;20.18;45.23;99864.19;5009812;28;8851;-76
2023/05/19 11:06:27;;;;;;;;;24.40;22.60;;;;;20.45;44.42;99857.34;4992012;28;9597;-75
2023/05/19 11:09:00;;;;;;;;;25.60;24.40;;;;;20.84;44.37;99861.31;4991749;28;8909;-76
2023/05/19 11:11:45;;;;;;;;;27.60;26.00;;;;;20.13;43.37;99853.78;4991100;28;8873;-76
2023/05/19 11:14:18;;;;;;;;;28.00;27.40;;;;;20.76;42.52;99858.22;5004030;28;8862;-76
2023/05/19 11:16:48;;;;;;;;;25.40;25.40;;;;;21.22;42.88;99852.00;5049343;28;8984;-78
2023/05/19 11:19:19;;;;;;;;;29.00;26.60;;;;;21.61;42.54;99846.03;5047509;28;8857;-78
2023/05/19 11:21:51;;;;;;;;;30.60;29.20;;;;;21.32;41.18;99852.31;5018226;28;8839;-75
2023/05/19 11:24:40;;;;;;;;;22.00;22.00;;;;;21.70;40.23;99849.94;5067047;28;9034;-76
2023/05/19 11:27:19;;;;;;;;;27.60;26.40;;;;;22.11;39.59;99840.22;5050979;28;8874;-76
2023/05/19 11:29:51;;;;;;;;;22.40;22.00;;;;;21.75;39.80;99838.94;5069988;28;8856;-76
2023/05/19 11:32:21;;;;;;;;;29.80;26.80;;;;;21.93;39.90;99824.41;5068555;28;8852;-77
2023/05/19 11:34:51;;;;;;;;;29.40;28.80;;;;;20.90;40.60;99824.47;5050670;28;8971;-74
2023/05/19 11:37:20;;;;;;;;;27.00;24.40;;;;;21.57;40.09;99827.56;5067137;28;8977;-79
2023/05/19 11:39:49;;;;;;;;;28.40;26.40;;;;;21.62;38.86;99821.00;5066731;28;9069;-77
2023/05/19 11:42:18;;;;;;;;;34.75;32.00;;;;;22.19;38.73;99817.38;5067468;28;8859;-76
2023/05/19 11:44:47;;;;;;;;;27.80;25.60;;;;;22.70;38.71;99813.19;5066522;28;8852;-76
2023/05/19 11:47:18;;;;;;;;;27.80;26.00;;;;;22.92;37.20;99810.81;4981254;28;8866;-77